This is the latest recevied weather packets stored in our database for station/object NE8U. If no packets are shown the sender has not sent any weather packets the latest 10 day(s).
| Time | Temp. | Humidity | Pressure | Rain* | Wind** | Luminosity | Snow |
|---|---|---|---|---|---|---|---|
| 1777942337 | 19.44° C | 44% | 1015.5 hPa | 0 mm | - | 14 W/m² | - |
| 1777942034 | 20° C | 44% | 1015.6 hPa | 0 mm | - | 23 W/m² | - |
| 1777941730 | 20° C | 42% | 1015.6 hPa | 0 mm | - | 27 W/m² | - |
| 1777941428 | 20° C | 41% | 1015.6 hPa | 0 mm | - | 26 W/m² | - |
| 1777941126 | 20.56° C | 41% | 1015.6 hPa | 0 mm | - | 28 W/m² | - |
| 1777940821 | 20.56° C | 40% | 1015.6 hPa | 0 mm | - | 38 W/m² | - |
| 1777940519 | 21.11° C | 40% | 1015.7 hPa | 0 mm | - | 48 W/m² | - |
| 1777940216 | 21.11° C | 40% | 1015.4 hPa | 0 mm | - | 50 W/m² | - |
| 1777939914 | 21.67° C | 39% | 1015.2 hPa | 0 mm | - | 41 W/m² | - |
| 1777939610 | 21.67° C | 38% | 1015.4 hPa | 0 mm | - | 47 W/m² | - |
| 1777939308 | 21.67° C | 36% | 1015.2 hPa | 0 mm | - | 46 W/m² | - |
| 1777939004 | 21.67° C | 37% | 1015.1 hPa | 0 mm | - | 62 W/m² | - |
| 1777938701 | 21.67° C | 39% | 1014.9 hPa | 0 mm | - | 59 W/m² | - |
| 1777938399 | 21.67° C | 38% | 1014.5 hPa | 0 mm | - | 60 W/m² | - |
| 1777938096 | 21.67° C | 40% | 1014.5 hPa | 0 mm | - | 75 W/m² | - |
| 1777937791 | 21.11° C | 40% | 1014.6 hPa | 0 mm | - | 67 W/m² | - |
| 1777937487 | 21.11° C | 46% | 1015.2 hPa | 0 mm | - | 73 W/m² | - |
| 1777937185 | 21.67° C | 42% | 1015.5 hPa | 0 mm | - | 71 W/m² | - |
| 1777936882 | 21.67° C | 42% | 1015.4 hPa | 0 mm | - | 78 W/m² | - |
| 1777936579 | 21.67° C | 40% | 1015.5 hPa | 0 mm | - | 65 W/m² | - |
| 1777936275 | 21.67° C | 41% | 1015.5 hPa | 0 mm | - | 74 W/m² | - |
| 1777935971 | 23.33° C | 38% | 1015.6 hPa | 0 mm | - | 79 W/m² | - |
| 1777935670 | 25° C | 28% | 1015.5 hPa | 0 mm | - | 74 W/m² | - |
| 1777935368 | 25° C | 25% | 1015 hPa | 0 mm | - | 57 W/m² | - |
| 1777935064 | 25° C | 24% | 1014.9 hPa | 0 mm | - | 59 W/m² | - |
* Rain latest hour (hover to see other rain measurements)
** Current wind speed in m/s (hover to see current wind gust speed)